Terminal Aerodrome Forecast
Issued by NWS Sioux Falls, SD

Home | Current Version | Previous Version | Graphics & Text | Print | Product List | Glossary On
Versions: 1 2 3 4 5 6 7 8 9 10 11 12 13 14 15
009
FTUS43 KFSD 272331
TAFFSD
TAF
KFSD 272331Z 2800/2824 36010KT P6SM FEW040 FEW250
     FM280200 02006KT P6SM SCT050
     FM281000 36004KT P6SM BKN110
     FM281700 02008KT P6SM BKN100=

USA.gov is the U.S. government's official web portal to all federal, state and local government web resources and services.